Time;durP1;ratioP1;P1;durP2;ratioP2;P2;SDS_P1;SDS_P2;PMS_P1;PMS_P2;Temp;Humidity;BMP_temperature;BMP_pressure;BME280_temperature;BME280_humidity;BME280_pressure;Samples;Min_cycle;Max_cycle;Signal;HPM_P1;HPM_P2
2022/03/13 00:00:02;;;;;;;30.77;14.80;;;;;;;-1.79;nan;96128.34;5028768;28;20295;-72
2022/03/13 00:02:29;;;;;;;31.23;14.10;;;;;;;-2.10;nan;96125.69;5028383;28;20203;-73
2022/03/13 00:04:56;;;;;;;29.27;14.27;;;;;;;-2.16;nan;96130.47;5028039;28;20782;-73
2022/03/13 00:07:28;;;;;;;24.67;15.33;;;;;;;-1.96;nan;96133.56;5027837;28;20192;-73
2022/03/13 00:09:55;;;;;;;31.07;16.00;;;;;;;-1.70;nan;96132.72;5028144;28;20231;-71
2022/03/13 00:12:30;;;;;;;37.27;17.53;;;;;;;-1.79;nan;96123.34;5028928;28;20196;-70
2022/03/13 00:15:09;;;;;;;36.87;16.90;;;;;;;-1.51;nan;96122.53;5028937;28;20196;-71
2022/03/13 00:17:36;;;;;;;36.77;17.27;;;;;;;-1.58;nan;96122.31;5028743;28;20248;-71
2022/03/13 00:20:07;;;;;;;37.50;18.20;;;;;;;-1.59;nan;96116.47;5028967;28;20228;-71
2022/03/13 00:22:37;;;;;;;39.67;18.07;;;;;;;-1.53;nan;96126.63;5028865;28;20198;-71
2022/03/13 00:25:08;;;;;;;38.83;17.30;;;;;;;-1.52;nan;96110.88;5028316;28;20248;-73
2022/03/13 00:27:35;;;;;;;44.20;17.97;;;;;;;-1.52;nan;96113.38;5027558;28;20283;-73
2022/03/13 00:30:02;;;;;;;38.50;18.77;;;;;;;-1.47;nan;96111.81;5029199;28;20651;-73
2022/03/13 00:32:29;;;;;;;42.00;19.13;;;;;;;-1.53;nan;96111.66;5029027;28;20231;-73
2022/03/13 00:34:56;;;;;;;42.63;20.47;;;;;;;-1.58;nan;96118.16;5028997;28;20204;-73
2022/03/13 00:37:22;;;;;;;51.07;22.80;;;;;;;-1.76;nan;96107.66;5028828;28;20192;-73
2022/03/13 00:39:51;;;;;;;42.73;20.83;;;;;;;-1.56;nan;96116.56;5028763;28;20264;-73
2022/03/13 00:42:18;;;;;;;37.57;20.80;;;;;;;-1.62;nan;96121.34;5027140;28;20213;-72
2022/03/13 00:44:45;;;;;;;35.73;19.97;;;;;;;-1.57;nan;96114.88;5028808;28;20252;-73
2022/03/13 00:47:12;;;;;;;41.80;20.33;;;;;;;-1.91;nan;96122.13;5028825;28;20187;-73
2022/03/13 00:49:39;;;;;;;32.73;17.70;;;;;;;-2.47;nan;96117.00;5028531;28;20698;-72
2022/03/13 00:52:06;;;;;;;48.33;22.10;;;;;;;-2.46;nan;96110.38;5028048;28;20192;-72
2022/03/13 00:54:34;;;;;;;49.67;21.80;;;;;;;-2.59;nan;96106.66;5027955;28;20200;-71
2022/03/13 00:57:02;;;;;;;46.37;22.23;;;;;;;-2.49;nan;96101.22;5027256;28;20262;-71
2022/03/13 00:59:29;;;;;;;46.83;20.17;;;;;;;-2.28;nan;96097.72;5028486;28;20199;-72
2022/03/13 01:01:56;;;;;;;38.53;19.13;;;;;;;-2.14;nan;96094.00;5028500;28;20195;-73
2022/03/13 01:04:23;;;;;;;44.57;21.47;;;;;;;-2.29;nan;96104.34;5028321;28;20651;-72
2022/03/13 01:06:50;;;;;;;45.67;20.00;;;;;;;-2.60;nan;96097.50;5028175;28;20228;-72
2022/03/13 01:09:17;;;;;;;49.87;18.60;;;;;;;-2.40;nan;96091.53;5028057;28;20196;-72
2022/03/13 01:11:44;;;;;;;40.10;17.40;;;;;;;-2.29;nan;96088.56;5027131;28;20760;-73
2022/03/13 01:14:13;;;;;;;33.20;17.27;;;;;;;-2.41;nan;96074.06;5028157;28;20200;-72
2022/03/13 01:16:42;;;;;;;40.43;17.13;;;;;;;-2.73;nan;96085.47;5028644;28;20256;-71
2022/03/13 01:19:09;;;;;;;39.07;18.83;;;;;;;-3.14;nan;96084.88;5028126;28;20663;-72
2022/03/13 01:21:38;;;;;;;57.80;21.80;;;;;;;-3.04;nan;96073.63;5027767;28;20196;-72
2022/03/13 01:24:28;;;;;;;46.80;22.40;;;;;;;-2.86;nan;96079.22;5028091;28;20226;-72
2022/03/13 01:27:00;;;;;;;51.63;22.03;;;;;;;-2.77;nan;96073.72;5028260;28;20196;-72
2022/03/13 01:29:29;;;;;;;44.63;21.47;;;;;;;-3.11;nan;96076.69;5027803;28;20202;-72
2022/03/13 01:31:55;;;;;;;47.23;21.90;;;;;;;-3.23;nan;96077.13;5026798;28;20701;-72
2022/03/13 01:34:47;;;;;;;49.40;22.80;;;;;;;-3.37;nan;96062.50;5027366;28;20256;-72
2022/03/13 01:37:33;;;;;;;54.50;21.67;;;;;;;-3.07;nan;96058.59;5027871;28;20204;-72
2022/03/13 01:40:03;;;;;;;49.87;22.93;;;;;;;-3.32;nan;96059.38;5027959;28;20199;-72
2022/03/13 01:42:30;;;;;;;50.23;23.10;;;;;;;-3.44;nan;96058.94;5028115;28;20208;-72
2022/03/13 01:44:59;;;;;;;56.50;23.83;;;;;;;-3.63;nan;96064.88;5028240;28;20260;-72
2022/03/13 01:47:26;;;;;;;41.37;18.77;;;;;;;-3.37;nan;96065.81;5027550;28;20196;-72
2022/03/13 01:49:53;;;;;;;37.57;18.17;;;;;;;-3.11;nan;96061.75;5027556;28;20264;-74
2022/03/13 01:52:25;;;;;;;30.40;16.10;;;;;;;-3.13;nan;96064.19;5027087;28;20257;-71
2022/03/13 01:54:52;;;;;;;29.07;15.33;;;;;;;-3.11;nan;96067.59;5028293;28;20200;-73
2022/03/13 01:57:21;;;;;;;29.90;14.93;;;;;;;-3.11;nan;96081.66;5027163;28;20767;-72
2022/03/13 01:59:52;;;;;;;36.63;16.17;;;;;;;-3.02;nan;96074.53;5027814;28;20196;-72
2022/03/13 02:02:21;;;;;;;28.60;16.53;;;;;;;-3.01;nan;96073.72;5027020;28;20279;-72
2022/03/13 02:04:52;;;;;;;31.13;15.67;;;;;;;-2.83;nan;96071.88;5026787;28;20195;-72
2022/03/13 02:07:19;;;;;;;24.37;12.90;;;;;;;-2.80;nan;96069.47;5028119;28;20231;-71
2022/03/13 02:09:47;;;;;;;24.07;12.83;;;;;;;-2.83;nan;96076.00;5030376;28;20731;-72
2022/03/13 02:12:16;;;;;;;37.00;15.33;;;;;;;-3.10;nan;96080.88;5030977;28;20575;-72
2022/03/13 02:14:43;;;;;;;29.10;14.30;;;;;;;-3.01;nan;96078.72;5031689;28;20196;-72
2022/03/13 02:17:10;;;;;;;28.17;15.10;;;;;;;-3.17;nan;96076.47;5031161;28;20284;-72
2022/03/13 02:19:39;;;;;;;26.80;14.30;;;;;;;-3.36;nan;96086.56;5030231;28;20662;-72
2022/03/13 02:22:06;;;;;;;29.53;14.10;;;;;;;-3.62;nan;96076.53;5030074;28;20195;-72
2022/03/13 02:24:34;;;;;;;32.33;14.07;;;;;;;-3.67;nan;96082.09;5030236;28;20200;-72
2022/03/13 02:27:03;;;;;;;27.80;13.40;;;;;;;-3.50;nan;96076.97;5030567;28;20199;-72
2022/03/13 02:29:30;;;;;;;28.40;14.17;;;;;;;-3.00;nan;96082.88;5030270;28;20276;-72
2022/03/13 02:31:58;;;;;;;23.73;13.50;;;;;;;-2.86;nan;96074.25;5029929;28;20235;-73
2022/03/13 02:34:25;;;;;;;28.37;13.60;;;;;;;-2.77;nan;96086.16;5029980;28;20706;-72
2022/03/13 02:37:03;;;;;;;25.90;13.60;;;;;;;-2.98;nan;96080.47;5029586;28;20208;-72
2022/03/13 02:39:37;;;;;;;23.77;13.10;;;;;;;-2.82;nan;96078.53;5029987;28;20275;-72
2022/03/13 02:42:08;;;;;;;26.60;12.77;;;;;;;-2.81;nan;96082.72;5028544;28;20774;-72
2022/03/13 02:44:36;;;;;;;23.80;12.27;;;;;;;-2.67;nan;96082.31;5030467;28;20228;-72
2022/03/13 02:47:05;;;;;;;18.67;11.47;;;;;;;-2.72;nan;96079.66;5029955;28;20188;-72
2022/03/13 02:49:33;;;;;;;28.70;11.90;;;;;;;-2.75;nan;96090.38;5030229;28;20579;-73
2022/03/13 02:52:03;;;;;;;33.97;13.00;;;;;;;-2.86;nan;96084.19;5029612;28;20280;-72
2022/03/13 02:54:30;;;;;;;21.83;10.67;;;;;;;-3.11;nan;96086.63;5074145;27;20695;-71
2022/03/13 02:56:59;;;;;;;25.67;12.47;;;;;;;-3.49;nan;96086.13;5125114;27;20268;-71
2022/03/13 02:59:26;;;;;;;14.27;10.73;;;;;;;-3.39;nan;96079.00;5125185;27;20196;-71
2022/03/13 03:01:53;;;;;;;20.07;11.93;;;;;;;-3.24;nan;96077.91;5127843;27;20554;-72
2022/03/13 03:04:24;;;;;;;21.17;11.93;;;;;;;-3.00;nan;96080.41;5128057;27;20304;-71
2022/03/13 03:06:55;;;;;;;19.03;11.93;;;;;;;-2.96;nan;96072.22;5128240;27;20659;-72
2022/03/13 03:09:21;;;;;;;18.50;10.67;;;;;;;-2.99;nan;96071.31;5128219;27;20295;-72
2022/03/13 03:11:48;;;;;;;20.47;11.57;;;;;;;-3.50;nan;96072.00;5126191;27;20273;-72
2022/03/13 03:14:17;;;;;;;20.80;12.13;;;;;;;-4.06;nan;96069.06;5125930;27;21808;-72
2022/03/13 03:16:45;;;;;;;18.70;11.27;;;;;;;-3.85;nan;96069.84;5128286;27;20198;-71
2022/03/13 03:19:13;;;;;;;24.27;10.90;;;;;;;-3.51;nan;96070.31;5128404;27;20196;-70
2022/03/13 03:21:39;;;;;;;18.03;10.00;;;;;;;-3.50;nan;96057.09;5128041;27;20680;-71
2022/03/13 03:24:14;;;;;;;20.20;10.23;;;;;;;-4.02;nan;96068.38;5127191;27;20256;-72
2022/03/13 03:26:41;;;;;;;19.93;8.53;;;;;;;-4.15;nan;96062.09;5127740;27;20244;-72
2022/03/13 03:29:09;;;;;;;14.53;8.77;;;;;;;-3.98;nan;96070.19;5127438;27;20547;-71
2022/03/13 03:31:41;;;;;;;16.83;8.30;;;;;;;-4.38;nan;96071.13;5125523;27;20253;-72
2022/03/13 03:34:13;;;;;;;15.70;9.13;;;;;;;-4.58;nan;96069.50;5127713;27;20858;-72
2022/03/13 03:36:45;;;;;;;11.40;7.07;;;;;;;-4.30;nan;96069.81;5126010;27;20256;-72
2022/03/13 03:39:13;;;;;;;9.17;7.53;;;;;;;-4.20;nan;96059.44;5126236;27;20200;-72
2022/03/13 03:41:42;;;;;;;10.23;6.73;;;;;;;-4.06;nan;96066.56;5124649;27;20725;-72
2022/03/13 03:44:09;;;;;;;16.93;8.17;;;;;;;-4.39;nan;96066.94;5106905;27;20199;-72
2022/03/13 03:46:36;;;;;;;11.10;7.93;;;;;;;-4.62;nan;96067.69;5141032;27;20727;-71
2022/03/13 03:49:05;;;;;;;10.80;6.53;;;;;;;-4.89;nan;96069.88;5141015;27;20253;-71
2022/03/13 03:51:32;;;;;;;10.13;7.27;;;;;;;-4.83;nan;96075.09;5141733;27;20250;-72
2022/03/13 03:53:59;;;;;;;13.23;7.53;;;;;;;-4.87;nan;96073.28;5143739;27;20219;-72
2022/03/13 03:56:26;;;;;;;13.23;7.23;;;;;;;-4.89;nan;96065.78;5119193;27;20264;-72
2022/03/13 03:58:53;;;;;;;13.37;7.63;;;;;;;-4.90;nan;96069.03;5092195;27;20204;-72
2022/03/13 04:01:20;;;;;;;11.63;6.97;;;;;;;-4.85;nan;96069.22;5061832;27;20951;-72
2022/03/13 04:03:50;;;;;;;7.33;6.57;;;;;;;-4.94;nan;96074.63;5067111;27;20994;-71
2022/03/13 04:06:19;;;;;;;7.50;5.93;;;;;;;-4.82;nan;96064.41;5141975;27;20203;-72
2022/03/13 04:08:46;;;;;;;9.67;5.87;;;;;;;-4.55;nan;96064.66;5144212;27;20786;-73
2022/03/13 04:11:14;;;;;;;8.30;6.10;;;;;;;-4.50;nan;96060.75;5126898;27;20338;-73
2022/03/13 04:13:41;;;;;;;8.33;6.63;;;;;;;-4.50;nan;96058.25;5126709;27;20318;-73
2022/03/13 04:16:09;;;;;;;9.03;6.53;;;;;;;-4.17;nan;96052.09;5140051;27;20206;-74
2022/03/13 04:18:37;;;;;;;9.13;6.03;;;;;;;-4.18;nan;96052.03;5114406;27;20277;-72
2022/03/13 04:21:05;;;;;;;9.50;6.40;;;;;;;-4.72;nan;96050.75;5069981;27;20260;-73
2022/03/13 04:23:35;;;;;;;9.10;6.87;;;;;;;-4.45;nan;96046.84;5135434;27;20263;-73
2022/03/13 04:26:03;;;;;;;10.53;7.03;;;;;;;-4.32;nan;96043.22;5108764;27;20272;-72
2022/03/13 04:28:30;;;;;;;9.53;6.43;;;;;;;-4.39;nan;96041.28;5142350;27;20191;-70
2022/03/13 04:30:59;;;;;;;14.97;6.40;;;;;;;-4.28;nan;96045.06;5094896;27;20245;-73
2022/03/13 04:33:26;;;;;;;10.20;7.03;;;;;;;-4.13;nan;96045.63;5114061;27;20251;-72
2022/03/13 04:35:56;;;;;;;12.47;6.37;;;;;;;-4.12;nan;96043.19;5142815;27;20204;-74
2022/03/13 04:38:24;;;;;;;11.10;6.93;;;;;;;-4.24;nan;96047.72;5083297;27;20282;-73
2022/03/13 04:40:52;;;;;;;9.23;6.80;;;;;;;-4.32;nan;96054.00;5091518;27;20640;-73
2022/03/13 04:43:19;;;;;;;10.67;6.30;;;;;;;-4.05;nan;96053.38;5062661;27;20213;-74
2022/03/13 04:45:48;;;;;;;8.60;6.87;;;;;;;-4.05;nan;96051.75;5098372;27;20289;-73
2022/03/13 04:48:15;;;;;;;10.93;6.97;;;;;;;-4.27;nan;96052.56;5139780;27;20234;-72
2022/03/13 04:50:43;;;;;;;15.23;8.50;;;;;;;-4.41;nan;96053.63;5142055;27;20203;-72
2022/03/13 04:53:10;;;;;;;9.57;7.00;;;;;;;-4.54;nan;96039.91;5093083;27;20222;-72
2022/03/13 04:55:37;;;;;;;13.60;7.87;;;;;;;-4.25;nan;96050.13;5058160;27;20191;-73
2022/03/13 04:58:05;;;;;;;9.60;7.67;;;;;;;-4.15;nan;96053.00;5079302;27;20211;-73
2022/03/13 05:00:34;;;;;;;15.17;7.37;;;;;;;-3.94;nan;96047.16;5108811;27;20202;-73
2022/03/13 05:03:01;;;;;;;13.70;7.97;;;;;;;-3.91;nan;96047.28;5078422;27;20199;-72
2022/03/13 05:05:27;;;;;;;17.53;8.07;;;;;;;-3.92;nan;96048.06;5087588;27;20271;-73
2022/03/13 05:07:54;;;;;;;11.50;8.17;;;;;;;-3.85;nan;96045.88;5111060;27;20759;-73
2022/03/13 05:10:22;;;;;;;15.60;8.27;;;;;;;-3.87;nan;96051.56;5113621;27;20655;-72
2022/03/13 05:12:48;;;;;;;14.83;8.93;;;;;;;-4.36;nan;96047.22;5140571;27;20317;-73
2022/03/13 05:15:17;;;;;;;18.60;7.67;;;;;;;-4.62;nan;96051.16;5066971;27;20203;-72
2022/03/13 05:17:44;;;;;;;11.00;7.87;;;;;;;-4.41;nan;96066.03;5058747;27;20202;-73
2022/03/13 05:20:13;;;;;;;20.50;8.67;;;;;;;-3.81;nan;96061.75;5076552;27;20211;-72
2022/03/13 05:22:40;;;;;;;19.53;9.33;;;;;;;-4.00;nan;96050.28;5140967;27;20231;-71
2022/03/13 05:25:08;;;;;;;13.40;8.87;;;;;;;-3.96;nan;96054.53;5096842;27;20697;-71
2022/03/13 05:27:35;;;;;;;17.70;9.73;;;;;;;-4.18;nan;96062.81;5095612;27;20187;-70
2022/03/13 05:30:01;;;;;;;16.60;10.73;;;;;;;-4.28;nan;96060.78;5112019;27;20201;-72
2022/03/13 05:32:30;;;;;;;20.57;9.67;;;;;;;-4.36;nan;96062.13;5141533;27;20329;-72
2022/03/13 05:34:57;;;;;;;22.10;10.67;;;;;;;-4.11;nan;96056.47;5143042;27;20200;-71
2022/03/13 05:37:25;;;;;;;16.00;8.90;;;;;;;-3.97;nan;96057.84;5142978;27;20362;-72
2022/03/13 05:39:52;;;;;;;18.50;9.73;;;;;;;-3.88;nan;96062.28;5140967;27;20219;-71
2022/03/13 05:42:19;;;;;;;17.23;9.33;;;;;;;-3.50;nan;96054.63;5114538;27;21046;-72
2022/03/13 05:44:46;;;;;;;15.43;10.20;;;;;;;-3.13;nan;96068.31;5119715;27;20252;-71
2022/03/13 05:47:13;;;;;;;17.27;9.43;;;;;;;-3.07;nan;96071.03;5134381;27;20202;-72
2022/03/13 05:49:44;;;;;;;15.63;9.43;;;;;;;-2.86;nan;96068.41;5131867;27;20231;-72
2022/03/13 05:52:11;;;;;;;19.97;10.53;;;;;;;-2.78;nan;96075.34;5142856;27;20694;-72
2022/03/13 05:54:38;;;;;;;19.13;10.67;;;;;;;-2.70;nan;96070.63;5147285;27;20206;-72
2022/03/13 05:57:06;;;;;;;19.87;11.03;;;;;;;-142.91;100.00;56616.03;5113718;27;20231;-71
2022/03/13 05:59:34;;;;;;;17.60;10.43;;;;;;;-2.90;nan;96069.94;5147573;27;20206;-72
2022/03/13 06:02:04;;;;;;;23.57;11.53;;;;;;;-2.25;nan;96071.28;5142034;27;21100;-72
2022/03/13 06:04:33;;;;;;;20.57;11.23;;;;;;;-2.41;nan;96069.06;5126642;27;20327;-73
2022/03/13 06:07:01;;;;;;;27.27;11.80;;;;;;;-2.26;nan;96082.03;5114280;27;20202;-73
2022/03/13 06:09:28;;;;;;;24.50;11.73;;;;;;;-1.53;nan;96071.78;5133988;27;20217;-71
2022/03/13 06:11:55;;;;;;;24.50;12.33;;;;;;;-1.18;nan;96070.25;5117955;27;20251;-71
2022/03/13 06:14:22;;;;;;;26.67;12.97;;;;;;;-0.92;nan;96073.47;5069600;27;21074;-73
2022/03/13 06:16:49;;;;;;;74.47;30.90;;;;;;;-1.01;nan;96073.25;5109356;27;20346;-73
2022/03/13 06:19:16;;;;;;;49.33;23.07;;;;;;;-0.84;nan;96072.03;5078845;27;20199;-73
2022/03/13 06:21:47;;;;;;;26.03;14.03;;;;;;;-0.85;nan;96077.81;5066673;27;20203;-73
2022/03/13 06:24:16;;;;;;;36.77;15.63;;;;;;;0.47;nan;96074.31;5134366;27;20192;-72
2022/03/13 06:26:43;;;;;;;30.20;16.53;;;;;;;2.76;nan;96061.47;5133070;27;20228;-72
2022/03/13 06:29:13;;;;;;;36.97;16.57;;;;;;;4.12;nan;96064.50;5164697;27;20203;-72
2022/03/13 06:31:40;;;;;;;31.37;15.17;;;;;;;4.72;nan;96058.16;5106490;27;20234;-71
2022/03/13 06:34:07;;;;;;;29.67;15.23;;;;;;;4.98;nan;96065.81;5124890;27;20202;-72
2022/03/13 06:36:35;;;;;;;33.30;14.60;;;;;;;4.54;nan;96068.97;5129570;27;20377;-73
2022/03/13 06:39:02;;;;;;;27.70;14.43;;;;;;;6.48;nan;96068.56;5117460;27;20195;-73
2022/03/13 06:41:31;;;;;;;25.10;15.03;;;;;;;8.30;nan;96062.56;5094188;27;20737;-72
2022/03/13 06:43:58;;;;;;;29.40;14.83;;;;;;;9.82;nan;96055.72;5151539;27;20750;-72
2022/03/13 06:46:24;;;;;;;34.20;15.73;;;;;;;10.44;nan;96053.88;5155740;27;20251;-71
2022/03/13 06:48:53;;;;;;;27.60;15.03;;;;;;;12.25;nan;96045.88;5121688;27;20670;-71
2022/03/13 06:51:20;;;;;;;27.98;16.25;;;;;;;13.17;nan;96049.44;5124015;27;20203;-73
2022/03/13 06:53:47;;;;;;;24.13;14.75;;;;;;;13.34;nan;96038.78;5155885;27;20203;-72
2022/03/13 06:56:14;;;;;;;25.67;14.95;;;;;;;14.42;nan;96042.25;5136719;27;20199;-72
2022/03/13 06:58:43;;;;;;;30.50;16.30;;;;;;;14.08;nan;96033.09;5132222;27;20196;-74
2022/03/13 07:01:11;;;;;;;56.45;28.10;;;;;;;13.10;nan;96039.44;5098187;27;20206;-74
2022/03/13 07:03:38;;;;;;;58.67;29.25;;;;;;;14.04;nan;96023.88;5129293;27;20187;-73
2022/03/13 07:06:05;;;;;;;29.63;17.15;;;;;;;14.09;nan;96024.56;5057668;27;20861;-75
2022/03/13 07:08:33;;;;;;;39.03;18.95;;;;;;;13.11;nan;96025.78;5068411;27;20274;-71
2022/03/13 07:11:01;;;;;;;33.10;15.55;;;;;;;13.27;nan;96027.06;5063199;27;20238;-72
2022/03/13 07:13:31;;;;;;;41.38;24.70;;;;;;;15.45;nan;96017.28;5118054;27;20327;-72
2022/03/13 07:16:00;;;;;;;25.10;15.95;;;;;;;13.94;nan;96025.03;5074892;27;20212;-72
2022/03/13 07:18:28;;;;;;;27.77;17.05;;;;;;;14.30;nan;96023.84;5144598;27;20222;-72
2022/03/13 07:20:54;;;;;;;30.38;15.23;;;;;;;15.08;nan;96016.09;5113727;27;20203;-72
2022/03/13 07:23:22;;;;;;;27.58;15.68;;;;;;;16.66;nan;96009.06;5093644;27;20217;-74
2022/03/13 07:25:50;;;;;;;27.30;15.88;;;;;;;17.92;nan;96015.41;5060375;27;20579;-72
2022/03/13 07:28:17;;;;;;;28.90;17.33;;;;;;;16.91;nan;96016.56;5082224;27;20203;-72
2022/03/13 07:30:44;;;;;;;37.92;21.55;;;;;;;18.13;nan;96014.38;5145346;27;20586;-72
2022/03/13 07:33:12;;;;;;;35.15;22.15;;;;;;;18.67;nan;96010.06;5068124;27;20234;-70
2022/03/13 07:35:39;;;;;;;29.17;17.88;;;;;;;19.69;nan;96009.88;5096001;27;20202;-70
2022/03/13 07:38:07;;;;;;;40.10;20.10;;;;;;;20.67;nan;96006.03;5070474;27;20662;-71
2022/03/13 07:40:34;;;;;;;24.02;17.63;;;;;;;17.41;nan;96022.03;5071871;27;20199;-71
2022/03/13 07:43:01;;;;;;;20.88;15.20;;;;;;;17.11;nan;96019.06;5128828;27;20654;-73
2022/03/13 07:45:28;;;;;;;28.65;16.50;;;;;;;16.57;nan;96023.09;5089312;27;20262;-71
2022/03/13 07:47:57;;;;;;;24.88;14.95;;;;;;;16.05;nan;96014.13;5105117;27;20210;-72
2022/03/13 07:50:27;;;;;;;30.25;16.17;;;;;;;17.47;nan;96019.19;5065949;27;20204;-73
2022/03/13 07:52:54;;;;;;;24.83;16.15;;;;;;;16.27;nan;96009.81;5101302;27;20218;-71
2022/03/13 07:55:22;;;;;;;29.05;16.95;;;;;;;15.25;nan;96010.34;5096224;27;20199;-71
2022/03/13 07:57:49;;;;;;;28.95;15.98;;;;;;;14.44;nan;96020.03;5132312;27;20235;-72
2022/03/13 08:00:18;;;;;;;33.00;17.88;;;;;;;16.59;nan;96005.06;5144104;27;20706;-71
2022/03/13 08:02:46;;;;;;;25.08;15.13;;;;;;;17.80;nan;96000.59;5144551;27;20211;-71
2022/03/13 08:05:13;;;;;;;24.88;15.70;;;;;;;16.91;nan;95999.41;5142683;27;20668;-71
2022/03/13 08:07:42;;;;;;;25.85;15.88;;;;;;;15.85;nan;96002.06;5111295;27;20222;-70
2022/03/13 08:10:10;;;;;;;24.00;15.35;;;;;;;16.07;nan;95996.97;5141380;27;22257;-71
2022/03/13 08:12:38;;;;;;;23.02;14.65;;;;;;;18.00;nan;95974.75;5077487;27;20693;-71
2022/03/13 08:15:07;;;;;;;25.45;14.80;;;;;;;17.83;nan;95979.84;5106532;27;20686;-71
2022/03/13 08:17:34;;;;;;;22.17;14.75;;;;;;;17.57;nan;95981.88;5090733;27;20286;-71
2022/03/13 08:20:02;;;;;;;26.67;15.18;;;;;;;15.15;nan;95978.28;5076310;27;20827;-71
2022/03/13 08:22:29;;;;;;;24.83;14.40;;;;;;;12.55;nan;95984.81;5144118;27;20207;-71
2022/03/13 08:24:57;;;;;;;29.58;15.05;;;;;;;11.18;nan;95996.50;5106137;27;20203;-72
2022/03/13 08:27:24;;;;;;;21.52;13.40;;;;;;;13.50;nan;95983.81;5123177;27;20207;-71
2022/03/13 08:29:51;;;;;;;23.98;15.80;;;;;;;15.90;nan;95981.41;5056636;27;20202;-71
2022/03/13 08:32:18;;;;;;;32.78;16.50;;;;;;;16.53;nan;95977.09;5058526;27;20237;-72
2022/03/13 08:34:48;;;;;;;32.83;15.70;;;;;;;16.40;nan;95976.75;5064360;27;20199;-72
2022/03/13 08:37:16;;;;;;;24.23;14.55;;;;;;;15.41;nan;95980.69;5060844;27;20596;-71
2022/03/13 08:39:43;;;;;;;35.60;16.58;;;;;;;14.80;nan;95988.09;5098851;27;20224;-71
2022/03/13 08:42:12;;;;;;;30.38;14.52;;;;;;;14.25;nan;95989.09;5141905;27;20330;-71
2022/03/13 08:44:38;;;;;;;25.35;15.68;;;;;;;14.39;nan;95973.28;5143073;27;20203;-70
2022/03/13 08:47:06;;;;;;;27.85;15.77;;;;;;;14.42;nan;95971.47;5143256;27;20569;-71
2022/03/13 08:49:32;;;;;;;30.38;16.17;;;;;;;13.12;nan;95982.34;5144792;27;20295;-70
2022/03/13 08:51:59;;;;;;;26.92;16.40;;;;;;;14.21;nan;95965.34;5105360;27;20760;-70
2022/03/13 08:54:26;;;;;;;43.83;18.08;;;;;;;14.62;nan;95963.13;5061945;27;20678;-71
2022/03/13 08:56:53;;;;;;;26.55;15.77;;;;;;;13.72;nan;95961.00;5097185;27;20250;-71
2022/03/13 08:59:21;;;;;;;24.25;14.73;;;;;;;13.35;nan;95965.56;5120884;27;20203;-71
2022/03/13 09:01:48;;;;;;;32.90;14.38;;;;;;;14.06;nan;95963.31;5141704;27;20201;-72
2022/03/13 09:04:15;;;;;;;26.95;14.32;;;;;;;14.10;nan;95964.88;5143656;27;20203;-72
2022/03/13 09:06:43;;;;;;;35.20;15.35;;;;;;;12.56;nan;95973.72;5086328;27;20198;-72
2022/03/13 09:09:10;;;;;;;34.45;14.65;;;;;;;11.32;nan;95970.78;5142501;27;20270;-72
2022/03/13 09:11:37;;;;;;;27.10;15.35;;;;;;;9.50;nan;95965.66;5143202;27;20203;-72
2022/03/13 09:14:04;;;;;;;26.77;16.13;;;;;;;9.16;nan;95970.34;5058574;27;20234;-72
2022/03/13 09:16:33;;;;;;;25.25;15.35;;;;;;;9.13;nan;95969.59;5094086;27;20240;-72
2022/03/13 09:19:00;;;;;;;22.35;13.65;;;;;;;9.02;nan;95968.88;5075877;27;20207;-72
2022/03/13 09:21:27;;;;;;;24.17;13.77;;;;;;;9.07;nan;95959.53;5092510;27;20774;-71
2022/03/13 09:23:56;;;;;;;23.10;12.88;;;;;;;10.31;nan;95950.81;5065946;27;20294;-72
2022/03/13 09:26:23;;;;;;;30.55;14.07;;;;;;;11.50;nan;95955.09;5122101;27;20202;-71
2022/03/13 09:28:50;;;;;;;25.03;13.90;;;;;;;11.64;nan;95948.84;5144661;27;20210;-71
2022/03/13 09:31:16;;;;;;;18.58;12.48;;;;;;;11.64;nan;95938.66;5137395;27;20232;-71
2022/03/13 09:33:45;;;;;;;22.67;13.15;;;;;;;12.42;nan;95940.09;5128907;27;20227;-70
2022/03/13 09:36:12;;;;;;;21.15;11.98;;;;;;;12.47;nan;95936.56;5147595;27;20210;-72
2022/03/13 09:38:39;;;;;;;27.55;12.98;;;;;;;10.68;nan;95949.22;5145872;27;20669;-71
2022/03/13 09:41:06;;;;;;;21.77;13.10;;;;;;;9.43;nan;95948.84;5135431;27;20271;-71
2022/03/13 09:43:32;;;;;;;25.07;13.40;;;;;;;9.11;nan;95946.78;5064133;27;20264;-72
2022/03/13 09:45:59;;;;;;;27.70;12.25;;;;;;;9.16;nan;95939.09;5105437;27;20214;-70
2022/03/13 09:48:27;;;;;;;25.20;12.43;;;;;;;8.36;nan;95940.97;5086072;27;21634;-71
2022/03/13 09:50:56;;;;;;;18.58;11.82;;;;;;;8.78;nan;95940.44;5107532;27;20271;-70
2022/03/13 09:53:23;;;;;;;22.50;12.45;;;;;;;9.34;nan;95928.69;5147588;27;20238;-70
2022/03/13 09:55:50;;;;;;;16.80;10.43;;;;;;;9.21;nan;95935.63;5147167;27;20210;-70
2022/03/13 09:58:16;;;;;;;17.83;11.18;;;;;;;9.62;nan;95920.66;5146354;27;20234;-70
2022/03/13 10:00:44;;;;;;;17.05;10.90;;;;;;;9.64;nan;95921.47;5076257;27;20206;-71
2022/03/13 10:03:11;;;;;;;20.98;10.20;;;;;;;9.60;nan;95919.84;5146082;27;20214;-72
2022/03/13 10:05:43;;;;;;;16.63;10.15;;;;;;;9.19;nan;95913.69;5144620;27;20204;-71
2022/03/13 10:08:12;;;;;;;14.65;10.23;;;;;;;9.21;nan;95912.81;5145214;27;20214;-71
2022/03/13 10:10:43;;;;;;;21.33;10.90;;;;;;;9.35;nan;95907.53;5146448;27;20589;-71
2022/03/13 10:13:11;;;;;;;16.83;8.75;;;;;;;9.44;nan;95904.00;5069952;27;20286;-71
2022/03/13 10:15:42;;;;;;;11.45;7.95;;;;;;;9.11;nan;95902.84;5059919;27;20199;-73
2022/03/13 10:18:13;;;;;;;14.90;7.95;;;;;;;8.66;nan;95900.03;5145905;27;20294;-71
2022/03/13 10:20:42;;;;;;;11.20;7.95;;;;;;;8.27;nan;95905.56;5147736;27;20906;-73
2022/03/13 10:23:15;;;;;;;11.70;7.28;;;;;;;7.87;nan;95908.53;5108769;27;20240;-70
2022/03/13 10:25:43;;;;;;;12.65;7.63;;;;;;;7.73;nan;95905.25;5146704;27;20259;-70
2022/03/13 10:28:19;;;;;;;14.47;8.93;;;;;;;7.88;nan;95889.13;5094449;27;20566;-72
2022/03/13 10:30:48;;;;;;;25.05;11.80;;;;;;;8.01;nan;95901.63;5054825;27;20282;-72
2022/03/13 10:33:16;;;;;;;35.35;18.00;;;;;;;7.77;nan;95902.69;5114361;27;20215;-71
2022/03/13 10:35:43;;;;;;;29.92;13.98;;;;;;;7.39;nan;95905.56;5113430;27;20574;-72
2022/03/13 10:38:20;;;;;;;9.68;7.78;;;;;;;7.36;nan;95899.69;5112066;27;20199;-72
2022/03/13 10:40:50;;;;;;;18.85;7.97;;;;;;;7.01;nan;95897.41;5146827;27;20203;-71
2022/03/13 10:43:26;;;;;;;11.25;7.93;;;;;;;7.37;nan;95897.16;5094417;27;20575;-72
2022/03/13 10:45:54;;;;;;;11.32;8.73;;;;;;;7.47;nan;95887.78;5098429;27;20199;-72
2022/03/13 10:48:28;;;;;;;18.02;9.75;;;;;;;7.50;nan;95885.22;5114896;27;20626;-71
2022/03/13 10:50:57;;;;;;;10.18;6.88;;;;;;;7.57;nan;95878.44;5145718;27;20470;-72
2022/03/13 10:53:28;;;;;;;9.23;6.93;;;;;;;7.28;nan;95887.09;5145790;27;20254;-72
2022/03/13 10:56:06;;;;;;;29.73;16.50;;;;;;;7.39;nan;95880.28;5145208;27;20198;-74
2022/03/13 10:58:35;;;;;;;8.82;5.70;;;;;;;7.60;nan;95891.06;5114062;27;20633;-73
2022/03/13 11:01:05;;;;;;;40.28;18.15;;;;;;;7.72;nan;95880.81;5136821;27;20210;-71
2022/03/13 11:03:34;;;;;;;10.93;7.50;;;;;;;7.62;nan;95886.84;5147120;27;20556;-71
2022/03/13 11:06:01;;;;;;;7.97;6.40;;;;;;;7.09;nan;95885.56;5069777;27;20286;-74
2022/03/13 11:08:30;;;;;;;8.85;6.82;;;;;;;6.83;nan;95873.94;5069211;27;20202;-71
2022/03/13 11:10:57;;;;;;;5.27;4.63;;;;;;;7.15;nan;95862.78;5093770;27;20202;-70
2022/03/13 11:13:27;;;;;;;5.53;4.80;;;;;;;7.14;nan;95866.16;5144533;27;20270;-71
2022/03/13 11:15:56;;;;;;;9.93;4.37;;;;;;;7.17;nan;95871.19;5146971;27;20195;-70
2022/03/13 11:18:26;;;;;;;5.20;4.70;;;;;;;7.03;nan;95866.22;5119852;27;20210;-72
2022/03/13 11:20:53;;;;;;;5.63;4.22;;;;;;;6.86;nan;95862.13;5071988;27;20738;-70
2022/03/13 11:23:20;;;;;;;5.68;4.13;;;;;;;6.61;nan;95867.34;5144826;27;20199;-71
2022/03/13 11:25:51;;;;;;;4.63;4.22;;;;;;;6.21;nan;95863.28;5107467;27;20199;-73
2022/03/13 11:28:19;;;;;;;7.68;4.00;;;;;;;6.22;nan;95872.53;5086852;27;20222;-70
2022/03/13 11:30:46;;;;;;;3.88;3.42;;;;;;;6.65;nan;95858.91;5146436;27;20250;-70
2022/03/13 11:33:31;;;;;;;5.40;3.60;;;;;;;6.75;nan;95859.66;5146946;27;20338;-70
2022/03/13 11:36:30;;;;;;;7.05;4.20;;;;;;;6.97;nan;95855.31;5145103;27;20188;-71
2022/03/13 11:38:59;;;;;;;8.43;6.15;;;;;;;7.08;nan;95856.91;5096104;27;20684;-71
2022/03/13 11:41:39;;;;;;;4.43;4.03;;;;;;;7.08;nan;95854.41;5041304;27;20206;-70
2022/03/13 11:44:33;;;;;;;6.70;5.10;;;;;;;7.48;nan;95854.91;5043979;27;20305;-71